sensor_id;sensor_type;location;lat;lon;timestamp;temperature;humidity
37478;DHT22;23334;54.316;10.182;2022-11-15T00:00:50;2.80;99.90
37478;DHT22;23334;54.316;10.182;2022-11-15T00:03:17;2.50;99.90
37478;DHT22;23334;54.316;10.182;2022-11-15T00:05:44;2.90;99.90
37478;DHT22;23334;54.316;10.182;2022-11-15T00:08:10;2.90;99.90
37478;DHT22;23334;54.316;10.182;2022-11-15T00:10:36;2.90;99.90
37478;DHT22;23334;54.316;10.182;2022-11-15T00:13:08;3.00;99.90
37478;DHT22;23334;54.316;10.182;2022-11-15T00:15:37;2.90;99.90
37478;DHT22;23334;54.316;10.182;2022-11-15T00:18:04;2.70;99.90
37478;DHT22;23334;54.316;10.182;2022-11-15T00:20:30;2.90;99.90
37478;DHT22;23334;54.316;10.182;2022-11-15T00:22:56;2.70;99.90
37478;DHT22;23334;54.316;10.182;2022-11-15T00:25:21;2.90;99.90
37478;DHT22;23334;54.316;10.182;2022-11-15T00:27:47;2.50;99.90
37478;DHT22;23334;54.316;10.182;2022-11-15T00:30:12;2.80;99.90
37478;DHT22;23334;54.316;10.182;2022-11-15T00:32:38;2.60;99.90
37478;DHT22;23334;54.316;10.182;2022-11-15T00:35:03;2.40;99.90
37478;DHT22;23334;54.316;10.182;2022-11-15T00:37:29;2.90;99.90
37478;DHT22;23334;54.316;10.182;2022-11-15T00:39:55;2.50;99.90
37478;DHT22;23334;54.316;10.182;2022-11-15T00:42:20;2.70;99.90
37478;DHT22;23334;54.316;10.182;2022-11-15T00:44:45;2.50;99.90
37478;DHT22;23334;54.316;10.182;2022-11-15T00:47:11;2.60;99.90
37478;DHT22;23334;54.316;10.182;2022-11-15T00:49:36;2.90;99.90
37478;DHT22;23334;54.316;10.182;2022-11-15T00:52:02;2.70;99.90
37478;DHT22;23334;54.316;10.182;2022-11-15T00:54:27;2.60;99.90
37478;DHT22;23334;54.316;10.182;2022-11-15T00:56:53;2.70;99.90
37478;DHT22;23334;54.316;10.182;2022-11-15T01:01:44;2.40;99.90
37478;DHT22;23334;54.316;10.182;2022-11-15T01:04:10;2.80;99.90
37478;DHT22;23334;54.316;10.182;2022-11-15T01:09:01;2.90;99.90
37478;DHT22;23334;54.316;10.182;2022-11-15T01:11:27;3.10;99.90
37478;DHT22;23334;54.316;10.182;2022-11-15T01:13:52;3.50;99.90
37478;DHT22;23334;54.316;10.182;2022-11-15T01:16:18;3.60;99.90
37478;DHT22;23334;54.316;10.182;2022-11-15T01:18:44;3.40;99.90
37478;DHT22;23334;54.316;10.182;2022-11-15T01:21:13;3.70;99.90
37478;DHT22;23334;54.316;10.182;2022-11-15T01:23:39;4.20;99.90
37478;DHT22;23334;54.316;10.182;2022-11-15T01:26:06;4.00;99.90
37478;DHT22;23334;54.316;10.182;2022-11-15T01:28:34;4.40;99.90
37478;DHT22;23334;54.316;10.182;2022-11-15T01:31:06;4.30;99.90
37478;DHT22;23334;54.316;10.182;2022-11-15T01:33:34;4.40;99.90
37478;DHT22;23334;54.316;10.182;2022-11-15T01:36:06;4.60;99.90
37478;DHT22;23334;54.316;10.182;2022-11-15T01:38:32;4.80;99.90
37478;DHT22;23334;54.316;10.182;2022-11-15T01:40:58;4.70;99.90
37478;DHT22;23334;54.316;10.182;2022-11-15T01:43:27;4.70;99.90
37478;DHT22;23334;54.316;10.182;2022-11-15T01:48:32;4.80;99.90
37478;DHT22;23334;54.316;10.182;2022-11-15T01:51:00;4.60;99.90
37478;DHT22;23334;54.316;10.182;2022-11-15T01:53:27;4.60;99.90
37478;DHT22;23334;54.316;10.182;2022-11-15T01:55:54;4.50;99.90
37478;DHT22;23334;54.316;10.182;2022-11-15T01:58:20;4.50;99.90
37478;DHT22;23334;54.316;10.182;2022-11-15T02:00:46;4.70;99.90
37478;DHT22;23334;54.316;10.182;2022-11-15T02:03:13;4.30;99.90
37478;DHT22;23334;54.316;10.182;2022-11-15T02:05:39;4.60;99.90
37478;DHT22;23334;54.316;10.182;2022-11-15T02:08:06;4.50;99.90
37478;DHT22;23334;54.316;10.182;2022-11-15T02:10:31;5.10;99.90
37478;DHT22;23334;54.316;10.182;2022-11-15T02:12:59;4.80;99.90
37478;DHT22;23334;54.316;10.182;2022-11-15T02:15:30;4.60;99.90
37478;DHT22;23334;54.316;10.182;2022-11-15T02:18:12;4.80;99.90
37478;DHT22;23334;54.316;10.182;2022-11-15T02:26:10;5.40;99.90
37478;DHT22;23334;54.316;10.182;2022-11-15T02:31:55;5.60;99.90
37478;DHT22;23334;54.316;10.182;2022-11-15T02:39:54;5.20;99.90
37478;DHT22;23334;54.316;10.182;2022-11-15T02:42:31;5.40;99.90
37478;DHT22;23334;54.316;10.182;2022-11-15T02:45:24;5.30;99.90
37478;DHT22;23334;54.316;10.182;2022-11-15T02:47:52;5.50;99.90
37478;DHT22;23334;54.316;10.182;2022-11-15T02:50:21;5.20;99.90
37478;DHT22;23334;54.316;10.182;2022-11-15T02:52:49;5.20;99.90
37478;DHT22;23334;54.316;10.182;2022-11-15T03:00:21;5.10;99.90
37478;DHT22;23334;54.316;10.182;2022-11-15T03:02:57;4.70;99.90
37478;DHT22;23334;54.316;10.182;2022-11-15T03:08:31;4.70;99.90
37478;DHT22;23334;54.316;10.182;2022-11-15T03:11:10;4.50;99.90
37478;DHT22;23334;54.316;10.182;2022-11-15T03:16:14;4.60;99.90
37478;DHT22;23334;54.316;10.182;2022-11-15T03:18:43;4.70;99.90
37478;DHT22;23334;54.316;10.182;2022-11-15T03:21:11;4.60;99.90
37478;DHT22;23334;54.316;10.182;2022-11-15T03:23:39;4.50;99.90
37478;DHT22;23334;54.316;10.182;2022-11-15T03:26:07;4.50;99.90
37478;DHT22;23334;54.316;10.182;2022-11-15T03:31:02;4.70;99.90
37478;DHT22;23334;54.316;10.182;2022-11-15T03:33:50;4.60;99.90
37478;DHT22;23334;54.316;10.182;2022-11-15T03:36:17;4.20;99.90
37478;DHT22;23334;54.316;10.182;2022-11-15T03:38:44;4.10;99.90
37478;DHT22;23334;54.316;10.182;2022-11-15T03:41:19;4.20;99.90
37478;DHT22;23334;54.316;10.182;2022-11-15T03:44:00;4.30;99.90
37478;DHT22;23334;54.316;10.182;2022-11-15T03:46:40;4.50;99.90
37478;DHT22;23334;54.316;10.182;2022-11-15T03:49:13;4.00;99.90
37478;DHT22;23334;54.316;10.182;2022-11-15T03:51:40;4.30;99.90
37478;DHT22;23334;54.316;10.182;2022-11-15T03:54:05;4.20;99.90
37478;DHT22;23334;54.316;10.182;2022-11-15T03:56:31;3.60;99.90
37478;DHT22;23334;54.316;10.182;2022-11-15T03:58:57;4.10;99.90
37478;DHT22;23334;54.316;10.182;2022-11-15T04:01:22;3.80;99.90
37478;DHT22;23334;54.316;10.182;2022-11-15T04:03:48;3.70;99.90
37478;DHT22;23334;54.316;10.182;2022-11-15T04:06:13;3.70;99.90
37478;DHT22;23334;54.316;10.182;2022-11-15T04:08:39;3.90;99.90
37478;DHT22;23334;54.316;10.182;2022-11-15T04:11:04;3.80;99.90
37478;DHT22;23334;54.316;10.182;2022-11-15T04:13:30;4.20;99.90
37478;DHT22;23334;54.316;10.182;2022-11-15T04:18:21;4.30;99.90
37478;DHT22;23334;54.316;10.182;2022-11-15T04:20:47;4.30;99.90
37478;DHT22;23334;54.316;10.182;2022-11-15T04:23:31;3.70;99.90
37478;DHT22;23334;54.316;10.182;2022-11-15T04:26:17;3.90;99.90
37478;DHT22;23334;54.316;10.182;2022-11-15T04:28:43;4.00;99.90
37478;DHT22;23334;54.316;10.182;2022-11-15T04:31:28;4.10;99.90
37478;DHT22;23334;54.316;10.182;2022-11-15T04:33:53;4.30;99.90
37478;DHT22;23334;54.316;10.182;2022-11-15T04:36:20;4.10;99.90
37478;DHT22;23334;54.316;10.182;2022-11-15T04:39:05;3.90;99.90
37478;DHT22;23334;54.316;10.182;2022-11-15T04:41:30;3.60;99.90
37478;DHT22;23334;54.316;10.182;2022-11-15T04:43:56;4.00;99.90
37478;DHT22;23334;54.316;10.182;2022-11-15T04:46:22;3.80;99.90
37478;DHT22;23334;54.316;10.182;2022-11-15T04:48:49;3.50;99.90
37478;DHT22;23334;54.316;10.182;2022-11-15T04:51:14;3.50;99.90
37478;DHT22;23334;54.316;10.182;2022-11-15T04:53:40;3.60;99.90
37478;DHT22;23334;54.316;10.182;2022-11-15T04:56:05;3.60;99.90
37478;DHT22;23334;54.316;10.182;2022-11-15T04:58:31;3.80;99.90
37478;DHT22;23334;54.316;10.182;2022-11-15T05:00:56;4.00;99.90
37478;DHT22;23334;54.316;10.182;2022-11-15T05:03:22;3.60;99.90
37478;DHT22;23334;54.316;10.182;2022-11-15T05:06:06;3.80;99.90
37478;DHT22;23334;54.316;10.182;2022-11-15T05:08:32;4.10;99.90
37478;DHT22;23334;54.316;10.182;2022-11-15T05:10:57;3.70;99.90
37478;DHT22;23334;54.316;10.182;2022-11-15T05:13:23;4.10;99.90
37478;DHT22;23334;54.316;10.182;2022-11-15T05:15:49;4.20;99.90
37478;DHT22;23334;54.316;10.182;2022-11-15T05:18:14;4.10;99.90
37478;DHT22;23334;54.316;10.182;2022-11-15T05:20:40;3.90;99.90
37478;DHT22;23334;54.316;10.182;2022-11-15T05:23:05;4.10;99.90
37478;DHT22;23334;54.316;10.182;2022-11-15T05:25:31;3.60;99.90
37478;DHT22;23334;54.316;10.182;2022-11-15T05:27:56;3.80;99.90
37478;DHT22;23334;54.316;10.182;2022-11-15T05:30:23;3.80;99.90
37478;DHT22;23334;54.316;10.182;2022-11-15T05:32:49;3.50;99.90
37478;DHT22;23334;54.316;10.182;2022-11-15T05:35:22;3.70;99.90
37478;DHT22;23334;54.316;10.182;2022-11-15T05:37:51;3.20;99.90
37478;DHT22;23334;54.316;10.182;2022-11-15T05:40:16;5.10;99.90
37478;DHT22;23334;54.316;10.182;2022-11-15T05:42:42;3.50;99.90
37478;DHT22;23334;54.316;10.182;2022-11-15T05:45:08;4.00;99.90
37478;DHT22;23334;54.316;10.182;2022-11-15T05:47:34;3.80;99.90
37478;DHT22;23334;54.316;10.182;2022-11-15T05:50:01;4.40;99.90
37478;DHT22;23334;54.316;10.182;2022-11-15T05:52:30;4.30;99.90
37478;DHT22;23334;54.316;10.182;2022-11-15T05:54:58;4.40;99.90
37478;DHT22;23334;54.316;10.182;2022-11-15T05:57:24;4.80;99.90
37478;DHT22;23334;54.316;10.182;2022-11-15T05:59:50;4.90;99.90
37478;DHT22;23334;54.316;10.182;2022-11-15T06:09:33;5.10;99.90
37478;DHT22;23334;54.316;10.182;2022-11-15T06:14:25;5.10;99.90
37478;DHT22;23334;54.316;10.182;2022-11-15T06:16:50;5.30;99.90
37478;DHT22;23334;54.316;10.182;2022-11-15T06:19:16;5.40;99.90
37478;DHT22;23334;54.316;10.182;2022-11-15T06:21:42;5.30;99.90
37478;DHT22;23334;54.316;10.182;2022-11-15T06:24:07;4.70;99.90
37478;DHT22;23334;54.316;10.182;2022-11-15T06:26:33;5.20;99.90
37478;DHT22;23334;54.316;10.182;2022-11-15T06:31:24;5.10;99.90
37478;DHT22;23334;54.316;10.182;2022-11-15T06:33:50;5.40;99.90
37478;DHT22;23334;54.316;10.182;2022-11-15T06:36:15;5.10;99.90
37478;DHT22;23334;54.316;10.182;2022-11-15T06:38:43;5.10;99.90
37478;DHT22;23334;54.316;10.182;2022-11-15T06:41:10;5.20;99.90
37478;DHT22;23334;54.316;10.182;2022-11-15T06:43:36;5.40;99.90
37478;DHT22;23334;54.316;10.182;2022-11-15T06:46:03;5.20;99.90
37478;DHT22;23334;54.316;10.182;2022-11-15T06:48:29;5.20;99.90
37478;DHT22;23334;54.316;10.182;2022-11-15T06:50:57;5.50;99.90
37478;DHT22;23334;54.316;10.182;2022-11-15T06:53:23;5.50;99.90
37478;DHT22;23334;54.316;10.182;2022-11-15T06:55:49;5.40;99.90
37478;DHT22;23334;54.316;10.182;2022-11-15T06:58:15;5.40;99.90
37478;DHT22;23334;54.316;10.182;2022-11-15T07:00:40;5.70;99.90
37478;DHT22;23334;54.316;10.182;2022-11-15T07:03:06;5.70;99.90
37478;DHT22;23334;54.316;10.182;2022-11-15T07:05:32;5.50;99.90
37478;DHT22;23334;54.316;10.182;2022-11-15T07:07:58;5.50;99.90
37478;DHT22;23334;54.316;10.182;2022-11-15T07:12:51;5.80;99.90
37478;DHT22;23334;54.316;10.182;2022-11-15T07:15:18;6.00;99.90
37478;DHT22;23334;54.316;10.182;2022-11-15T07:17:44;5.90;99.90
37478;DHT22;23334;54.316;10.182;2022-11-15T07:22:36;6.00;99.90
37478;DHT22;23334;54.316;10.182;2022-11-15T07:25:01;6.10;99.90
37478;DHT22;23334;54.316;10.182;2022-11-15T11:14:31;9.00;99.90
37478;DHT22;23334;54.316;10.182;2022-11-15T11:17:06;8.80;99.90
37478;DHT22;23334;54.316;10.182;2022-11-15T11:22:39;9.00;99.90
37478;DHT22;23334;54.316;10.182;2022-11-15T11:28:23;9.00;99.90
37478;DHT22;23334;54.316;10.182;2022-11-15T11:33:50;9.10;99.90
37478;DHT22;23334;54.316;10.182;2022-11-15T11:36:35;9.10;99.90
37478;DHT22;23334;54.316;10.182;2022-11-15T11:39:26;9.10;99.90
37478;DHT22;23334;54.316;10.182;2022-11-15T11:42:08;9.00;99.90
37478;DHT22;23334;54.316;10.182;2022-11-15T11:44:52;8.90;99.90
37478;DHT22;23334;54.316;10.182;2022-11-15T11:47:31;9.20;99.90
37478;DHT22;23334;54.316;10.182;2022-11-15T11:50:10;9.10;99.90
37478;DHT22;23334;54.316;10.182;2022-11-15T11:53:01;9.70;99.90
37478;DHT22;23334;54.316;10.182;2022-11-15T11:55:32;9.20;99.90
37478;DHT22;23334;54.316;10.182;2022-11-15T11:58:04;9.00;99.90
37478;DHT22;23334;54.316;10.182;2022-11-15T12:00:33;9.00;99.90
37478;DHT22;23334;54.316;10.182;2022-11-15T12:06:02;9.40;99.90
37478;DHT22;23334;54.316;10.182;2022-11-15T12:08:45;9.30;99.90
37478;DHT22;23334;54.316;10.182;2022-11-15T12:11:16;9.50;99.90
37478;DHT22;23334;54.316;10.182;2022-11-15T12:13:42;9.10;99.90
37478;DHT22;23334;54.316;10.182;2022-11-15T12:18:46;9.50;99.90
37478;DHT22;23334;54.316;10.182;2022-11-15T12:24:04;9.60;99.90
37478;DHT22;23334;54.316;10.182;2022-11-15T12:26:37;9.70;99.90
37478;DHT22;23334;54.316;10.182;2022-11-15T12:29:20;10.40;99.90
37478;DHT22;23334;54.316;10.182;2022-11-15T12:31:50;9.70;99.90
37478;DHT22;23334;54.316;10.182;2022-11-15T12:36:45;9.40;99.90
37478;DHT22;23334;54.316;10.182;2022-11-15T12:39:12;9.70;99.90
37478;DHT22;23334;54.316;10.182;2022-11-15T12:47:01;9.50;99.90
37478;DHT22;23334;54.316;10.182;2022-11-15T13:02:22;9.90;99.90
37478;DHT22;23334;54.316;10.182;2022-11-15T13:04:49;9.90;99.90
37478;DHT22;23334;54.316;10.182;2022-11-15T13:17:50;10.00;99.90
37478;DHT22;23334;54.316;10.182;2022-11-15T13:22:47;10.00;99.90
37478;DHT22;23334;54.316;10.182;2022-11-15T13:25:30;10.00;99.90
37478;DHT22;23334;54.316;10.182;2022-11-15T13:28:00;9.70;99.90
37478;DHT22;23334;54.316;10.182;2022-11-15T13:30:30;9.80;99.90
37478;DHT22;23334;54.316;10.182;2022-11-15T13:33:00;9.80;99.90
37478;DHT22;23334;54.316;10.182;2022-11-15T13:35:28;9.70;99.90
37478;DHT22;23334;54.316;10.182;2022-11-15T13:37:56;9.80;99.90
37478;DHT22;23334;54.316;10.182;2022-11-15T13:40:29;10.00;99.90
37478;DHT22;23334;54.316;10.182;2022-11-15T13:42:58;9.90;99.90
37478;DHT22;23334;54.316;10.182;2022-11-15T13:45:24;10.00;99.90
37478;DHT22;23334;54.316;10.182;2022-11-15T13:47:57;9.90;99.90
37478;DHT22;23334;54.316;10.182;2022-11-15T13:50:27;9.90;99.90
37478;DHT22;23334;54.316;10.182;2022-11-15T13:52:58;9.80;99.90
37478;DHT22;23334;54.316;10.182;2022-11-15T13:55:25;9.90;99.90
37478;DHT22;23334;54.316;10.182;2022-11-15T13:57:57;10.10;99.90
37478;DHT22;23334;54.316;10.182;2022-11-15T14:02:56;10.20;99.90
37478;DHT22;23334;54.316;10.182;2022-11-15T14:05:24;9.80;99.90
37478;DHT22;23334;54.316;10.182;2022-11-15T14:08:02;10.20;99.90
37478;DHT22;23334;54.316;10.182;2022-11-15T14:10:31;10.30;99.90
37478;DHT22;23334;54.316;10.182;2022-11-15T14:12:57;10.50;99.90
37478;DHT22;23334;54.316;10.182;2022-11-15T14:15:36;10.30;99.90
37478;DHT22;23334;54.316;10.182;2022-11-15T14:18:02;10.30;99.90
37478;DHT22;23334;54.316;10.182;2022-11-15T14:20:39;10.30;99.90
37478;DHT22;23334;54.316;10.182;2022-11-15T14:23:05;10.30;99.90
37478;DHT22;23334;54.316;10.182;2022-11-15T14:25:58;10.20;99.90
37478;DHT22;23334;54.316;10.182;2022-11-15T14:30:51;10.20;99.90
37478;DHT22;23334;54.316;10.182;2022-11-15T14:33:30;10.40;99.90
37478;DHT22;23334;54.316;10.182;2022-11-15T14:35:59;10.40;99.90
37478;DHT22;23334;54.316;10.182;2022-11-15T14:38:27;10.00;99.90
37478;DHT22;23334;54.316;10.182;2022-11-15T14:40:53;10.40;99.90
37478;DHT22;23334;54.316;10.182;2022-11-15T14:43:20;9.90;99.90
37478;DHT22;23334;54.316;10.182;2022-11-15T14:45:45;10.30;99.90
37478;DHT22;23334;54.316;10.182;2022-11-15T14:48:11;10.30;99.90
37478;DHT22;23334;54.316;10.182;2022-11-15T14:50:36;10.30;99.90
37478;DHT22;23334;54.316;10.182;2022-11-15T14:53:02;10.30;99.90
37478;DHT22;23334;54.316;10.182;2022-11-15T14:55:30;10.20;99.90
37478;DHT22;23334;54.316;10.182;2022-11-15T14:57:58;10.30;99.90
37478;DHT22;23334;54.316;10.182;2022-11-15T15:00:24;9.90;99.90
37478;DHT22;23334;54.316;10.182;2022-11-15T15:02:53;10.30;99.90
37478;DHT22;23334;54.316;10.182;2022-11-15T15:05:25;9.90;99.90
37478;DHT22;23334;54.316;10.182;2022-11-15T15:07:51;10.10;99.90
37478;DHT22;23334;54.316;10.182;2022-11-15T15:10:19;10.20;99.90
37478;DHT22;23334;54.316;10.182;2022-11-15T15:12:45;9.90;99.90
37478;DHT22;23334;54.316;10.182;2022-11-15T15:15:21;9.90;99.90
37478;DHT22;23334;54.316;10.182;2022-11-15T15:17:47;9.70;99.90
37478;DHT22;23334;54.316;10.182;2022-11-15T15:20:13;10.20;99.90
37478;DHT22;23334;54.316;10.182;2022-11-15T15:22:38;9.60;99.90
37478;DHT22;23334;54.316;10.182;2022-11-15T15:27:48;9.60;99.90
37478;DHT22;23334;54.316;10.182;2022-11-15T15:30:13;10.20;99.90
37478;DHT22;23334;54.316;10.182;2022-11-15T15:32:39;9.30;99.90
37478;DHT22;23334;54.316;10.182;2022-11-15T15:35:04;9.20;99.90
37478;DHT22;23334;54.316;10.182;2022-11-15T15:37:31;9.20;99.90
37478;DHT22;23334;54.316;10.182;2022-11-15T15:39:58;8.90;99.90
37478;DHT22;23334;54.316;10.182;2022-11-15T15:42:25;8.90;99.90
37478;DHT22;23334;54.316;10.182;2022-11-15T15:44:51;9.00;99.90
37478;DHT22;23334;54.316;10.182;2022-11-15T15:47:19;8.80;99.90
37478;DHT22;23334;54.316;10.182;2022-11-15T15:49:45;8.60;99.90
37478;DHT22;23334;54.316;10.182;2022-11-15T15:52:10;8.60;99.90
37478;DHT22;23334;54.316;10.182;2022-11-15T15:54:37;8.70;99.90
37478;DHT22;23334;54.316;10.182;2022-11-15T15:57:05;8.50;99.90
37478;DHT22;23334;54.316;10.182;2022-11-15T15:59:30;8.10;99.90
37478;DHT22;23334;54.316;10.182;2022-11-15T16:01:56;8.40;99.90
37478;DHT22;23334;54.316;10.182;2022-11-15T16:04:22;8.10;99.90
37478;DHT22;23334;54.316;10.182;2022-11-15T16:06:47;8.40;99.90
37478;DHT22;23334;54.316;10.182;2022-11-15T16:09:16;8.20;99.90
37478;DHT22;23334;54.316;10.182;2022-11-15T16:11:44;8.00;99.90
37478;DHT22;23334;54.316;10.182;2022-11-15T16:14:10;8.10;99.90
37478;DHT22;23334;54.316;10.182;2022-11-15T16:16:36;8.30;99.90
37478;DHT22;23334;54.316;10.182;2022-11-15T16:19:02;8.10;99.90
37478;DHT22;23334;54.316;10.182;2022-11-15T16:21:28;8.50;99.90
37478;DHT22;23334;54.316;10.182;2022-11-15T16:23:53;8.50;99.90
37478;DHT22;23334;54.316;10.182;2022-11-15T16:26:27;8.20;99.90
37478;DHT22;23334;54.316;10.182;2022-11-15T16:28:53;8.50;99.90
37478;DHT22;23334;54.316;10.182;2022-11-15T16:31:19;8.30;99.90
37478;DHT22;23334;54.316;10.182;2022-11-15T16:33:47;8.20;99.90
37478;DHT22;23334;54.316;10.182;2022-11-15T16:36:23;8.40;99.90
37478;DHT22;23334;54.316;10.182;2022-11-15T16:38:48;8.60;99.90
37478;DHT22;23334;54.316;10.182;2022-11-15T16:41:15;8.40;99.90
37478;DHT22;23334;54.316;10.182;2022-11-15T16:43:46;8.80;99.90
37478;DHT22;23334;54.316;10.182;2022-11-15T16:46:23;8.40;99.90
37478;DHT22;23334;54.316;10.182;2022-11-15T16:48:50;8.20;99.90
37478;DHT22;23334;54.316;10.182;2022-11-15T16:51:15;8.20;99.90
37478;DHT22;23334;54.316;10.182;2022-11-15T16:53:41;8.20;99.90
37478;DHT22;23334;54.316;10.182;2022-11-15T16:56:28;8.30;99.90
37478;DHT22;23334;54.316;10.182;2022-11-15T16:58:55;8.10;99.90
37478;DHT22;23334;54.316;10.182;2022-11-15T17:01:24;8.10;99.90
37478;DHT22;23334;54.316;10.182;2022-11-15T17:03:50;7.90;99.90
37478;DHT22;23334;54.316;10.182;2022-11-15T17:06:16;8.10;99.90
37478;DHT22;23334;54.316;10.182;2022-11-15T17:08:46;7.90;99.90
37478;DHT22;23334;54.316;10.182;2022-11-15T17:11:15;8.10;99.90
37478;DHT22;23334;54.316;10.182;2022-11-15T17:13:41;7.70;99.90
37478;DHT22;23334;54.316;10.182;2022-11-15T17:16:11;7.90;99.90
37478;DHT22;23334;54.316;10.182;2022-11-15T17:18:38;8.20;99.90
37478;DHT22;23334;54.316;10.182;2022-11-15T17:21:12;7.80;99.90
37478;DHT22;23334;54.316;10.182;2022-11-15T17:23:38;8.00;99.90
37478;DHT22;23334;54.316;10.182;2022-11-15T17:26:04;7.70;99.90
37478;DHT22;23334;54.316;10.182;2022-11-15T17:28:31;7.60;99.90
37478;DHT22;23334;54.316;10.182;2022-11-15T17:30:57;7.40;99.90
37478;DHT22;23334;54.316;10.182;2022-11-15T17:33:23;7.60;99.90
37478;DHT22;23334;54.316;10.182;2022-11-15T17:35:59;7.40;99.90
37478;DHT22;23334;54.316;10.182;2022-11-15T17:38:25;7.60;99.90
37478;DHT22;23334;54.316;10.182;2022-11-15T17:41:06;7.70;99.90
37478;DHT22;23334;54.316;10.182;2022-11-15T17:43:35;7.80;99.90
37478;DHT22;23334;54.316;10.182;2022-11-15T17:46:05;7.90;99.90
37478;DHT22;23334;54.316;10.182;2022-11-15T17:48:31;8.10;99.90
37478;DHT22;23334;54.316;10.182;2022-11-15T17:50:58;8.00;99.90
37478;DHT22;23334;54.316;10.182;2022-11-15T17:53:25;8.20;99.90
37478;DHT22;23334;54.316;10.182;2022-11-15T17:55:51;8.30;99.90
37478;DHT22;23334;54.316;10.182;2022-11-15T17:58:18;8.40;99.90
37478;DHT22;23334;54.316;10.182;2022-11-15T18:00:45;7.90;99.90
37478;DHT22;23334;54.316;10.182;2022-11-15T18:03:16;8.40;99.90
37478;DHT22;23334;54.316;10.182;2022-11-15T18:05:41;8.50;99.90
37478;DHT22;23334;54.316;10.182;2022-11-15T18:08:09;8.70;99.90
37478;DHT22;23334;54.316;10.182;2022-11-15T18:10:35;8.70;99.90
37478;DHT22;23334;54.316;10.182;2022-11-15T18:13:01;8.80;99.90
37478;DHT22;23334;54.316;10.182;2022-11-15T18:15:27;9.00;99.90
37478;DHT22;23334;54.316;10.182;2022-11-15T18:17:53;8.90;99.90
37478;DHT22;23334;54.316;10.182;2022-11-15T18:20:19;9.00;99.90
37478;DHT22;23334;54.316;10.182;2022-11-15T18:22:44;9.00;99.90
37478;DHT22;23334;54.316;10.182;2022-11-15T18:25:10;9.00;99.90
37478;DHT22;23334;54.316;10.182;2022-11-15T18:27:35;9.10;99.90
37478;DHT22;23334;54.316;10.182;2022-11-15T18:30:03;9.10;99.90
37478;DHT22;23334;54.316;10.182;2022-11-15T18:32:29;9.10;99.90
37478;DHT22;23334;54.316;10.182;2022-11-15T18:34:54;9.10;99.90
37478;DHT22;23334;54.316;10.182;2022-11-15T18:37:20;9.10;99.90
37478;DHT22;23334;54.316;10.182;2022-11-15T18:39:45;9.10;99.90
37478;DHT22;23334;54.316;10.182;2022-11-15T18:42:11;9.20;99.90
37478;DHT22;23334;54.316;10.182;2022-11-15T18:44:38;9.20;99.90
37478;DHT22;23334;54.316;10.182;2022-11-15T18:47:03;9.30;99.90
37478;DHT22;23334;54.316;10.182;2022-11-15T18:49:29;9.10;99.90
37478;DHT22;23334;54.316;10.182;2022-11-15T18:51:54;9.30;99.90
37478;DHT22;23334;54.316;10.182;2022-11-15T18:54:21;9.10;99.90
37478;DHT22;23334;54.316;10.182;2022-11-15T18:56:47;9.30;99.90
37478;DHT22;23334;54.316;10.182;2022-11-15T18:59:13;9.30;99.90
37478;DHT22;23334;54.316;10.182;2022-11-15T19:01:43;9.50;99.90
37478;DHT22;23334;54.316;10.182;2022-11-15T19:04:15;9.10;99.90
37478;DHT22;23334;54.316;10.182;2022-11-15T19:06:43;9.10;99.90
37478;DHT22;23334;54.316;10.182;2022-11-15T19:09:10;9.00;99.90
37478;DHT22;23334;54.316;10.182;2022-11-15T19:11:37;9.20;99.90
37478;DHT22;23334;54.316;10.182;2022-11-15T19:14:12;9.10;99.90
37478;DHT22;23334;54.316;10.182;2022-11-15T19:16:46;9.00;99.90
37478;DHT22;23334;54.316;10.182;2022-11-15T19:19:23;9.20;99.90
37478;DHT22;23334;54.316;10.182;2022-11-15T19:21:50;9.30;99.90
37478;DHT22;23334;54.316;10.182;2022-11-15T19:24:16;9.30;99.90
37478;DHT22;23334;54.316;10.182;2022-11-15T19:26:41;9.20;99.90
37478;DHT22;23334;54.316;10.182;2022-11-15T19:29:08;9.30;99.90
37478;DHT22;23334;54.316;10.182;2022-11-15T19:31:36;9.00;99.90
37478;DHT22;23334;54.316;10.182;2022-11-15T19:34:03;9.20;99.90
37478;DHT22;23334;54.316;10.182;2022-11-15T19:36:33;9.20;99.90
37478;DHT22;23334;54.316;10.182;2022-11-15T19:39:01;9.50;99.90
37478;DHT22;23334;54.316;10.182;2022-11-15T19:41:32;9.10;99.90
37478;DHT22;23334;54.316;10.182;2022-11-15T19:43:58;9.00;99.90
37478;DHT22;23334;54.316;10.182;2022-11-15T19:46:24;9.20;99.90
37478;DHT22;23334;54.316;10.182;2022-11-15T19:48:51;9.20;99.90
37478;DHT22;23334;54.316;10.182;2022-11-15T19:51:19;9.30;99.90
37478;DHT22;23334;54.316;10.182;2022-11-15T19:53:46;9.70;99.90
37478;DHT22;23334;54.316;10.182;2022-11-15T19:56:14;9.20;99.90
37478;DHT22;23334;54.316;10.182;2022-11-15T19:58:40;9.20;99.90
37478;DHT22;23334;54.316;10.182;2022-11-15T20:01:16;9.20;99.90
37478;DHT22;23334;54.316;10.182;2022-11-15T20:03:45;9.00;99.90
37478;DHT22;23334;54.316;10.182;2022-11-15T20:08:43;9.20;99.90
37478;DHT22;23334;54.316;10.182;2022-11-15T20:11:09;9.10;99.90
37478;DHT22;23334;54.316;10.182;2022-11-15T20:13:35;9.20;99.90
37478;DHT22;23334;54.316;10.182;2022-11-15T20:16:01;9.00;99.90
37478;DHT22;23334;54.316;10.182;2022-11-15T20:18:27;9.10;99.90
37478;DHT22;23334;54.316;10.182;2022-11-15T20:20:54;8.90;99.90
37478;DHT22;23334;54.316;10.182;2022-11-15T20:23:21;9.30;99.90
37478;DHT22;23334;54.316;10.182;2022-11-15T20:25:47;9.20;99.90
37478;DHT22;23334;54.316;10.182;2022-11-15T20:28:16;9.20;99.90
37478;DHT22;23334;54.316;10.182;2022-11-15T20:30:45;8.90;99.90
37478;DHT22;23334;54.316;10.182;2022-11-15T20:33:11;8.90;99.90
37478;DHT22;23334;54.316;10.182;2022-11-15T20:35:38;8.80;99.90
37478;DHT22;23334;54.316;10.182;2022-11-15T20:38:09;9.10;99.90
37478;DHT22;23334;54.316;10.182;2022-11-15T20:40:35;9.10;99.90
37478;DHT22;23334;54.316;10.182;2022-11-15T20:43:01;8.80;99.90
37478;DHT22;23334;54.316;10.182;2022-11-15T20:45:27;9.00;99.90
37478;DHT22;23334;54.316;10.182;2022-11-15T20:47:56;9.00;99.90
37478;DHT22;23334;54.316;10.182;2022-11-15T20:52:49;9.00;99.90
37478;DHT22;23334;54.316;10.182;2022-11-15T20:55:14;9.00;99.90
37478;DHT22;23334;54.316;10.182;2022-11-15T20:57:40;9.00;99.90
37478;DHT22;23334;54.316;10.182;2022-11-15T21:00:06;8.80;99.90
37478;DHT22;23334;54.316;10.182;2022-11-15T21:02:31;8.90;99.90
37478;DHT22;23334;54.316;10.182;2022-11-15T21:04:58;8.80;99.90
37478;DHT22;23334;54.316;10.182;2022-11-15T21:07:24;8.90;99.90
37478;DHT22;23334;54.316;10.182;2022-11-15T21:09:49;8.90;99.90
37478;DHT22;23334;54.316;10.182;2022-11-15T21:12:33;9.00;99.90
37478;DHT22;23334;54.316;10.182;2022-11-15T21:14:58;8.90;99.90
37478;DHT22;23334;54.316;10.182;2022-11-15T21:17:24;8.70;99.90
37478;DHT22;23334;54.316;10.182;2022-11-15T21:19:50;8.90;99.90
37478;DHT22;23334;54.316;10.182;2022-11-15T21:22:15;8.70;99.90